sensor_id;sensor_type;location;lat;lon;timestamp;pressure;altitude;pressure_sealevel;temperature;humidity
12182;BME280;6154;51.550;12.138;2022-12-10T00:01:35;99685.19;;;5.90;67.83
12182;BME280;6154;51.550;12.138;2022-12-10T00:04:22;99680.56;;;5.96;67.53
12182;BME280;6154;51.550;12.138;2022-12-10T00:07:09;99686.50;;;6.00;67.28
12182;BME280;6154;51.550;12.138;2022-12-10T00:09:56;99687.91;;;6.07;67.08
12182;BME280;6154;51.550;12.138;2022-12-10T00:12:43;99683.28;;;6.12;66.95
12182;BME280;6154;51.550;12.138;2022-12-10T00:15:30;99685.56;;;6.01;67.13
12182;BME280;6154;51.550;12.138;2022-12-10T00:18:23;99690.81;;;6.01;67.23
12182;BME280;6154;51.550;12.138;2022-12-10T00:21:13;99700.47;;;6.00;67.16
12182;BME280;6154;51.550;12.138;2022-12-10T00:24:01;99689.97;;;6.00;67.22
12182;BME280;6154;51.550;12.138;2022-12-10T00:26:48;99699.50;;;6.03;66.99
12182;BME280;6154;51.550;12.138;2022-12-10T00:29:35;99692.84;;;5.96;67.19
12182;BME280;6154;51.550;12.138;2022-12-10T00:32:22;99700.88;;;5.93;67.19
12182;BME280;6154;51.550;12.138;2022-12-10T00:35:10;99696.16;;;5.99;66.95
12182;BME280;6154;51.550;12.138;2022-12-10T00:37:58;99696.72;;;6.06;66.70
12182;BME280;6154;51.550;12.138;2022-12-10T00:40:47;99684.19;;;6.11;66.54
12182;BME280;6154;51.550;12.138;2022-12-10T00:43:34;99682.03;;;6.19;66.29
12182;BME280;6154;51.550;12.138;2022-12-10T00:46:22;99683.75;;;6.20;66.16
12182;BME280;6154;51.550;12.138;2022-12-10T00:49:10;99693.97;;;6.26;65.89
12182;BME280;6154;51.550;12.138;2022-12-10T00:51:58;99697.34;;;6.28;65.77
12182;BME280;6154;51.550;12.138;2022-12-10T00:54:48;99693.03;;;6.27;65.73
12182;BME280;6154;51.550;12.138;2022-12-10T00:57:36;99697.22;;;6.31;65.65
12182;BME280;6154;51.550;12.138;2022-12-10T01:00:23;99706.63;;;6.18;65.87
12182;BME280;6154;51.550;12.138;2022-12-10T01:03:10;99705.69;;;6.19;65.94
12182;BME280;6154;51.550;12.138;2022-12-10T01:05:57;99707.25;;;6.23;65.88
12182;BME280;6154;51.550;12.138;2022-12-10T01:08:47;99708.31;;;6.19;66.01
12182;BME280;6154;51.550;12.138;2022-12-10T01:11:36;99709.06;;;6.04;66.32
12182;BME280;6154;51.550;12.138;2022-12-10T01:14:26;99715.78;;;6.10;66.26
12182;BME280;6154;51.550;12.138;2022-12-10T01:17:14;99717.28;;;6.15;66.18
12182;BME280;6154;51.550;12.138;2022-12-10T01:20:03;99712.81;;;6.17;66.06
12182;BME280;6154;51.550;12.138;2022-12-10T01:22:50;99726.09;;;6.14;65.97
12182;BME280;6154;51.550;12.138;2022-12-10T01:25:38;99719.84;;;6.17;65.90
12182;BME280;6154;51.550;12.138;2022-12-10T01:28:28;99718.97;;;6.16;65.88
12182;BME280;6154;51.550;12.138;2022-12-10T01:31:18;99726.22;;;6.11;65.87
12182;BME280;6154;51.550;12.138;2022-12-10T01:34:09;99723.38;;;6.16;65.86
12182;BME280;6154;51.550;12.138;2022-12-10T01:36:56;99726.16;;;6.13;65.87
12182;BME280;6154;51.550;12.138;2022-12-10T01:39:43;99728.50;;;6.00;66.11
12182;BME280;6154;51.550;12.138;2022-12-10T01:42:31;99721.03;;;5.92;66.39
12182;BME280;6154;51.550;12.138;2022-12-10T01:45:19;99722.97;;;5.87;66.51
12182;BME280;6154;51.550;12.138;2022-12-10T01:48:06;99731.22;;;5.98;66.40
12182;BME280;6154;51.550;12.138;2022-12-10T01:50:53;99724.84;;;6.04;66.29
12182;BME280;6154;51.550;12.138;2022-12-10T01:53:40;99727.37;;;6.05;66.32
12182;BME280;6154;51.550;12.138;2022-12-10T01:56:28;99726.87;;;5.97;66.54
12182;BME280;6154;51.550;12.138;2022-12-10T01:59:17;99728.13;;;5.89;66.80
12182;BME280;6154;51.550;12.138;2022-12-10T02:02:08;99730.69;;;5.92;66.81
12182;BME280;6154;51.550;12.138;2022-12-10T02:05:10;99726.50;;;5.86;67.05
12182;BME280;6154;51.550;12.138;2022-12-10T02:08:05;99732.44;;;5.91;67.01
12182;BME280;6154;51.550;12.138;2022-12-10T02:11:01;99736.38;;;6.00;66.82
12182;BME280;6154;51.550;12.138;2022-12-10T02:13:55;99725.59;;;6.06;66.60
12182;BME280;6154;51.550;12.138;2022-12-10T02:16:47;99740.00;;;5.97;66.59
12182;BME280;6154;51.550;12.138;2022-12-10T02:19:52;99736.63;;;5.95;66.69
12182;BME280;6154;51.550;12.138;2022-12-10T02:22:46;99728.66;;;5.97;66.69
12182;BME280;6154;51.550;12.138;2022-12-10T02:25:40;99718.44;;;5.91;66.68
12182;BME280;6154;51.550;12.138;2022-12-10T02:28:42;99721.88;;;5.93;66.54
12182;BME280;6154;51.550;12.138;2022-12-10T02:31:33;99722.56;;;5.96;66.47
12182;BME280;6154;51.550;12.138;2022-12-10T02:34:23;99730.53;;;5.95;66.33
12182;BME280;6154;51.550;12.138;2022-12-10T02:37:14;99722.50;;;5.98;66.41
12182;BME280;6154;51.550;12.138;2022-12-10T02:40:11;99721.56;;;5.99;66.24
12182;BME280;6154;51.550;12.138;2022-12-10T02:43:01;99723.25;;;6.00;66.19
12182;BME280;6154;51.550;12.138;2022-12-10T02:45:50;99718.66;;;6.05;66.02
12182;BME280;6154;51.550;12.138;2022-12-10T02:48:39;99719.78;;;5.99;65.98
12182;BME280;6154;51.550;12.138;2022-12-10T02:51:27;99723.12;;;6.03;65.88
12182;BME280;6154;51.550;12.138;2022-12-10T02:54:34;99724.09;;;6.00;65.90
12182;BME280;6154;51.550;12.138;2022-12-10T02:57:35;99723.12;;;6.03;65.95
12182;BME280;6154;51.550;12.138;2022-12-10T03:00:24;99723.25;;;6.00;65.95
12182;BME280;6154;51.550;12.138;2022-12-10T03:03:22;99723.25;;;6.00;65.90
12182;BME280;6154;51.550;12.138;2022-12-10T03:06:18;99726.13;;;5.95;66.07
12182;BME280;6154;51.550;12.138;2022-12-10T03:09:13;99722.50;;;5.98;65.96
12182;BME280;6154;51.550;12.138;2022-12-10T03:12:10;99717.88;;;6.03;65.89
12182;BME280;6154;51.550;12.138;2022-12-10T03:15:06;99726.59;;;6.03;65.80
12182;BME280;6154;51.550;12.138;2022-12-10T03:17:56;99726.59;;;6.03;65.73
12182;BME280;6154;51.550;12.138;2022-12-10T03:20:45;99734.06;;;5.94;65.90
12182;BME280;6154;51.550;12.138;2022-12-10T03:23:36;99739.09;;;5.98;65.86
12182;BME280;6154;51.550;12.138;2022-12-10T03:26:26;99742.50;;;6.00;65.88
12182;BME280;6154;51.550;12.138;2022-12-10T03:29:15;99738.16;;;5.99;65.87
12182;BME280;6154;51.550;12.138;2022-12-10T03:32:04;99739.16;;;5.97;65.91
12182;BME280;6154;51.550;12.138;2022-12-10T03:34:54;99733.16;;;5.95;65.94
12182;BME280;6154;51.550;12.138;2022-12-10T03:37:43;99742.03;;;5.92;66.00
12182;BME280;6154;51.550;12.138;2022-12-10T03:40:31;99732.91;;;5.99;65.81
12182;BME280;6154;51.550;12.138;2022-12-10T03:43:20;99732.38;;;5.93;65.93
12182;BME280;6154;51.550;12.138;2022-12-10T03:46:08;99730.84;;;5.87;66.11
12182;BME280;6154;51.550;12.138;2022-12-10T03:48:56;99728.81;;;5.94;65.95
12182;BME280;6154;51.550;12.138;2022-12-10T03:51:43;99729.84;;;5.90;65.92
12182;BME280;6154;51.550;12.138;2022-12-10T03:54:31;99733.69;;;5.83;66.25
12182;BME280;6154;51.550;12.138;2022-12-10T03:57:19;99717.59;;;5.90;66.05
12182;BME280;6154;51.550;12.138;2022-12-10T04:00:07;99730.66;;;5.73;66.45
12182;BME280;6154;51.550;12.138;2022-12-10T04:02:56;99735.66;;;5.77;66.40
12182;BME280;6154;51.550;12.138;2022-12-10T04:05:43;99734.75;;;5.78;66.25
12182;BME280;6154;51.550;12.138;2022-12-10T04:08:31;99730.34;;;5.79;66.31
12182;BME280;6154;51.550;12.138;2022-12-10T04:11:18;99734.63;;;5.82;66.13
12182;BME280;6154;51.550;12.138;2022-12-10T04:14:08;99738.12;;;5.81;66.27
12182;BME280;6154;51.550;12.138;2022-12-10T04:17:13;99740.72;;;5.82;66.25
12182;BME280;6154;51.550;12.138;2022-12-10T04:19:59;99745.81;;;5.85;66.17
12182;BME280;6154;51.550;12.138;2022-12-10T04:22:47;99740.34;;;5.90;66.06
12182;BME280;6154;51.550;12.138;2022-12-10T04:25:51;99739.91;;;5.80;66.40
12182;BME280;6154;51.550;12.138;2022-12-10T04:28:55;99736.25;;;5.84;66.29
12182;BME280;6154;51.550;12.138;2022-12-10T04:31:44;99731.06;;;5.83;66.27
12182;BME280;6154;51.550;12.138;2022-12-10T04:34:31;99744.47;;;5.76;66.60
12182;BME280;6154;51.550;12.138;2022-12-10T04:37:19;99737.53;;;5.75;66.54
12182;BME280;6154;51.550;12.138;2022-12-10T04:40:07;99737.38;;;5.78;66.62
12182;BME280;6154;51.550;12.138;2022-12-10T04:42:54;99728.66;;;5.78;66.50
12182;BME280;6154;51.550;12.138;2022-12-10T04:45:41;99724.31;;;5.77;66.54
12182;BME280;6154;51.550;12.138;2022-12-10T04:48:30;99730.66;;;5.73;66.69
12182;BME280;6154;51.550;12.138;2022-12-10T04:51:17;99731.19;;;5.61;66.81
12182;BME280;6154;51.550;12.138;2022-12-10T04:54:04;99734.69;;;5.61;67.02
12182;BME280;6154;51.550;12.138;2022-12-10T04:56:52;99726.53;;;5.67;66.88
12182;BME280;6154;51.550;12.138;2022-12-10T04:59:38;99730.41;;;5.77;66.56
12182;BME280;6154;51.550;12.138;2022-12-10T05:02:25;99733.87;;;5.78;66.53
12182;BME280;6154;51.550;12.138;2022-12-10T05:05:14;99728.94;;;5.72;66.62
12182;BME280;6154;51.550;12.138;2022-12-10T05:08:01;99739.72;;;5.66;66.75
12182;BME280;6154;51.550;12.138;2022-12-10T05:10:48;99743.03;;;5.69;66.64
12182;BME280;6154;51.550;12.138;2022-12-10T05:13:35;99742.69;;;5.58;66.95
12182;BME280;6154;51.550;12.138;2022-12-10T05:16:23;99740.28;;;5.54;67.01
12182;BME280;6154;51.550;12.138;2022-12-10T05:19:10;99744.38;;;5.59;66.87
12182;BME280;6154;51.550;12.138;2022-12-10T05:21:59;99742.97;;;5.52;66.99
12182;BME280;6154;51.550;12.138;2022-12-10T05:25:04;99742.84;;;5.55;66.77
12182;BME280;6154;51.550;12.138;2022-12-10T05:27:51;99740.41;;;5.51;66.82
12182;BME280;6154;51.550;12.138;2022-12-10T05:30:38;99740.13;;;5.57;66.67
12182;BME280;6154;51.550;12.138;2022-12-10T05:33:25;99740.13;;;5.57;66.57
12182;BME280;6154;51.550;12.138;2022-12-10T05:36:15;99733.47;;;5.49;66.75
12182;BME280;6154;51.550;12.138;2022-12-10T05:39:04;99743.72;;;5.35;67.01
12182;BME280;6154;51.550;12.138;2022-12-10T05:41:51;99737.22;;;5.44;66.88
12182;BME280;6154;51.550;12.138;2022-12-10T05:44:38;99744.31;;;5.42;67.14
12182;BME280;6154;51.550;12.138;2022-12-10T05:47:25;99751.34;;;5.41;67.09
12182;BME280;6154;51.550;12.138;2022-12-10T05:50:12;99760.31;;;5.36;67.12
12182;BME280;6154;51.550;12.138;2022-12-10T05:53:00;99754.00;;;5.40;66.95
12182;BME280;6154;51.550;12.138;2022-12-10T05:55:48;99754.41;;;5.31;67.09
12182;BME280;6154;51.550;12.138;2022-12-10T05:58:36;99755.41;;;5.28;67.10
12182;BME280;6154;51.550;12.138;2022-12-10T06:01:25;99748.66;;;5.43;66.91
12182;BME280;6154;51.550;12.138;2022-12-10T06:04:13;99760.06;;;5.42;66.67
12182;BME280;6154;51.550;12.138;2022-12-10T06:07:00;99754.81;;;5.42;66.78
12182;BME280;6154;51.550;12.138;2022-12-10T06:09:54;99758.97;;;5.27;66.89
12182;BME280;6154;51.550;12.138;2022-12-10T06:12:42;99755.84;;;5.38;66.66
12182;BME280;6154;51.550;12.138;2022-12-10T06:15:29;99756.16;;;5.32;66.81
12182;BME280;6154;51.550;12.138;2022-12-10T06:18:17;99760.25;;;5.37;66.66
12182;BME280;6154;51.550;12.138;2022-12-10T06:21:05;99767.59;;;5.29;66.76
12182;BME280;6154;51.550;12.138;2022-12-10T06:23:52;99759.88;;;5.26;67.03
12182;BME280;6154;51.550;12.138;2022-12-10T06:26:40;99766.75;;;5.29;66.93
12182;BME280;6154;51.550;12.138;2022-12-10T06:29:28;99770.44;;;5.25;66.93
12182;BME280;6154;51.550;12.138;2022-12-10T06:32:15;99772.78;;;5.10;67.43
12182;BME280;6154;51.550;12.138;2022-12-10T06:35:03;99778.03;;;5.10;67.32
12182;BME280;6154;51.550;12.138;2022-12-10T06:37:50;99781.84;;;5.24;67.15
12182;BME280;6154;51.550;12.138;2022-12-10T06:40:38;99783.09;;;5.15;77.86
12182;BME280;6154;51.550;12.138;2022-12-10T06:43:28;99784.88;;;5.14;72.94
12182;BME280;6154;51.550;12.138;2022-12-10T06:46:18;99787.16;;;5.22;68.41
12182;BME280;6154;51.550;12.138;2022-12-10T06:49:06;99796.38;;;5.31;67.64
12182;BME280;6154;51.550;12.138;2022-12-10T06:51:53;99794.22;;;5.20;67.37
12182;BME280;6154;51.550;12.138;2022-12-10T06:54:40;99797.69;;;5.20;67.29
12182;BME280;6154;51.550;12.138;2022-12-10T06:57:28;99801.63;;;5.31;67.13
12182;BME280;6154;51.550;12.138;2022-12-10T07:00:15;99798.97;;;5.32;66.92
12182;BME280;6154;51.550;12.138;2022-12-10T07:03:08;99800.25;;;5.42;66.58
12182;BME280;6154;51.550;12.138;2022-12-10T07:05:56;99802.06;;;5.40;66.45
12182;BME280;6154;51.550;12.138;2022-12-10T07:08:44;99806.44;;;5.41;66.28
12182;BME280;6154;51.550;12.138;2022-12-10T07:11:31;99808.78;;;5.47;66.07
12182;BME280;6154;51.550;12.138;2022-12-10T07:14:18;99805.97;;;5.52;65.91
12182;BME280;6154;51.550;12.138;2022-12-10T07:17:05;99818.28;;;5.50;65.83
12182;BME280;6154;51.550;12.138;2022-12-10T07:19:54;99819.75;;;5.37;65.93
12182;BME280;6154;51.550;12.138;2022-12-10T07:22:41;99822.88;;;5.45;65.83
12182;BME280;6154;51.550;12.138;2022-12-10T07:25:28;99815.66;;;5.50;65.74
12182;BME280;6154;51.550;12.138;2022-12-10T07:28:15;99816.56;;;5.49;65.69
12182;BME280;6154;51.550;12.138;2022-12-10T07:31:04;99816.38;;;5.54;65.53
12182;BME280;6154;51.550;12.138;2022-12-10T07:33:52;99817.31;;;5.53;65.47
12182;BME280;6154;51.550;12.138;2022-12-10T07:36:41;99813.16;;;5.47;65.50
12182;BME280;6154;51.550;12.138;2022-12-10T07:39:29;99821.56;;;5.55;65.34
12182;BME280;6154;51.550;12.138;2022-12-10T07:42:16;99821.56;;;5.55;65.33
12182;BME280;6154;51.550;12.138;2022-12-10T07:45:03;99831.59;;;5.45;65.45
12182;BME280;6154;51.550;12.138;2022-12-10T07:47:50;99821.97;;;5.46;65.23
12182;BME280;6154;51.550;12.138;2022-12-10T07:50:37;99820.13;;;5.48;65.14
12182;BME280;6154;51.550;12.138;2022-12-10T07:53:26;99832.38;;;5.47;65.20
12182;BME280;6154;51.550;12.138;2022-12-10T07:56:13;99830.34;;;5.54;65.10
12182;BME280;6154;51.550;12.138;2022-12-10T07:59:00;99828.25;;;5.62;65.00
12182;BME280;6154;51.550;12.138;2022-12-10T08:01:47;99834.53;;;5.58;65.03
12182;BME280;6154;51.550;12.138;2022-12-10T08:04:35;99834.41;;;5.61;64.95
12182;BME280;6154;51.550;12.138;2022-12-10T08:07:23;99833.97;;;5.52;65.08
12182;BME280;6154;51.550;12.138;2022-12-10T08:10:12;99833.91;;;5.53;65.26
12182;BME280;6154;51.550;12.138;2022-12-10T08:12:59;99841.41;;;5.42;65.40
12182;BME280;6154;51.550;12.138;2022-12-10T08:15:46;99839.72;;;5.60;65.29
12182;BME280;6154;51.550;12.138;2022-12-10T08:18:34;99842.00;;;5.67;65.04
12182;BME280;6154;51.550;12.138;2022-12-10T08:21:23;99842.28;;;5.80;64.85
12182;BME280;6154;51.550;12.138;2022-12-10T08:24:11;99847.69;;;5.77;64.69
12182;BME280;6154;51.550;12.138;2022-12-10T08:27:00;99853.16;;;5.93;64.56
12182;BME280;6154;51.550;12.138;2022-12-10T08:29:47;99854.56;;;6.00;64.42
12182;BME280;6154;51.550;12.138;2022-12-10T08:32:34;99860.62;;;6.02;64.12
12182;BME280;6154;51.550;12.138;2022-12-10T08:35:21;99863.09;;;6.05;64.04
12182;BME280;6154;51.550;12.138;2022-12-10T08:38:08;99868.50;;;6.02;64.13
12182;BME280;6154;51.550;12.138;2022-12-10T08:40:55;99861.91;;;6.12;64.17
12182;BME280;6154;51.550;12.138;2022-12-10T08:43:44;99862.69;;;6.14;64.02
12182;BME280;6154;51.550;12.138;2022-12-10T08:46:31;99871.06;;;6.22;63.87
12182;BME280;6154;51.550;12.138;2022-12-10T08:49:19;99870.13;;;6.23;63.59
12182;BME280;6154;51.550;12.138;2022-12-10T08:52:05;99867.62;;;6.20;63.64
12182;BME280;6154;51.550;12.138;2022-12-10T08:54:53;99871.59;;;6.10;63.59
12182;BME280;6154;51.550;12.138;2022-12-10T08:57:39;99867.50;;;6.23;63.53
12182;BME280;6154;51.550;12.138;2022-12-10T09:00:28;99870.75;;;6.28;63.48
12182;BME280;6154;51.550;12.138;2022-12-10T09:03:15;99868.34;;;6.24;63.33
12182;BME280;6154;51.550;12.138;2022-12-10T09:06:04;99871.19;;;6.19;63.40
12182;BME280;6154;51.550;12.138;2022-12-10T09:08:51;99865.38;;;6.31;63.65
12182;BME280;6154;51.550;12.138;2022-12-10T09:11:39;99860.91;;;6.33;63.53
12182;BME280;6154;51.550;12.138;2022-12-10T09:14:26;99865.94;;;6.38;63.51
12182;BME280;6154;51.550;12.138;2022-12-10T09:17:14;99864.91;;;6.41;63.43
12182;BME280;6154;51.550;12.138;2022-12-10T09:20:02;99858.53;;;6.46;63.31
12182;BME280;6154;51.550;12.138;2022-12-10T09:22:51;99855.13;;;6.63;63.20
12182;BME280;6154;51.550;12.138;2022-12-10T09:25:39;99872.28;;;6.70;62.91
12182;BME280;6154;51.550;12.138;2022-12-10T09:28:26;99867.06;;;6.87;62.96
12182;BME280;6154;51.550;12.138;2022-12-10T09:31:14;99860.03;;;6.88;62.52
12182;BME280;6154;51.550;12.138;2022-12-10T09:34:05;99863.56;;;6.87;62.38
12182;BME280;6154;51.550;12.138;2022-12-10T09:36:52;99876.53;;;6.91;62.60
12182;BME280;6154;51.550;12.138;2022-12-10T09:39:39;99871.53;;;6.85;62.36
12182;BME280;6154;51.550;12.138;2022-12-10T09:42:34;99877.81;;;6.83;62.41
12182;BME280;6154;51.550;12.138;2022-12-10T09:45:30;99876.81;;;6.85;62.54
12182;BME280;6154;51.550;12.138;2022-12-10T09:48:22;99881.06;;;6.88;62.35
12182;BME280;6154;51.550;12.138;2022-12-10T09:51:20;99880.44;;;7.00;62.36
12182;BME280;6154;51.550;12.138;2022-12-10T09:54:17;99870.09;;;6.97;62.17
12182;BME280;6154;51.550;12.138;2022-12-10T09:57:06;99877.59;;;7.05;62.10
12182;BME280;6154;51.550;12.138;2022-12-10T10:00:02;99874.34;;;7.00;62.09
12182;BME280;6154;51.550;12.138;2022-12-10T10:02:58;99872.88;;;7.11;62.19
12182;BME280;6154;51.550;12.138;2022-12-10T10:05:48;99871.81;;;7.15;62.07
12182;BME280;6154;51.550;12.138;2022-12-10T10:08:41;99874.53;;;7.14;61.56
12182;BME280;6154;51.550;12.138;2022-12-10T10:11:33;99867.94;;;7.05;61.46
12182;BME280;6154;51.550;12.138;2022-12-10T10:14:25;99867.69;;;7.10;61.41
12182;BME280;6154;51.550;12.138;2022-12-10T10:17:18;99865.69;;;6.98;61.24
12182;BME280;6154;51.550;12.138;2022-12-10T10:20:07;99858.25;;;7.06;61.48
12182;BME280;6154;51.550;12.138;2022-12-10T10:22:56;99864.37;;;7.06;61.66
12182;BME280;6154;51.550;12.138;2022-12-10T10:25:45;99863.69;;;7.03;61.71
12182;BME280;6154;51.550;12.138;2022-12-10T10:28:32;99863.22;;;7.12;61.63
12182;BME280;6154;51.550;12.138;2022-12-10T10:31:22;99860.12;;;7.21;61.57
12182;BME280;6154;51.550;12.138;2022-12-10T10:34:14;99862.75;;;7.21;61.34
12182;BME280;6154;51.550;12.138;2022-12-10T10:37:03;99859.03;;;7.25;61.42
12182;BME280;6154;51.550;12.138;2022-12-10T10:39:51;99858.88;;;7.28;61.41
12182;BME280;6154;51.550;12.138;2022-12-10T10:42:41;99853.78;;;7.42;61.38
12182;BME280;6154;51.550;12.138;2022-12-10T10:45:38;99854.84;;;7.21;60.92
12182;BME280;6154;51.550;12.138;2022-12-10T10:48:28;99858.19;;;7.25;61.02
12182;BME280;6154;51.550;12.138;2022-12-10T10:51:18;99847.50;;;7.28;61.14
12182;BME280;6154;51.550;12.138;2022-12-10T10:54:08;99853.00;;;7.23;61.24
12182;BME280;6154;51.550;12.138;2022-12-10T10:56:55;99853.44;;;7.31;61.38
12182;BME280;6154;51.550;12.138;2022-12-10T10:59:43;99859.44;;;7.35;61.24
12182;BME280;6154;51.550;12.138;2022-12-10T11:02:34;99853.53;;;7.30;61.11
12182;BME280;6154;51.550;12.138;2022-12-10T11:05:24;99852.00;;;7.43;61.19
12182;BME280;6154;51.550;12.138;2022-12-10T11:08:20;99854.69;;;7.41;61.16
12182;BME280;6154;51.550;12.138;2022-12-10T11:11:12;99855.00;;;7.53;61.24
12182;BME280;6154;51.550;12.138;2022-12-10T11:14:14;99856.50;;;7.24;60.77
12182;BME280;6154;51.550;12.138;2022-12-10T11:17:17;99857.66;;;7.18;60.82
12182;BME280;6154;51.550;12.138;2022-12-10T11:20:17;99856.72;;;7.36;61.30
12182;BME280;6154;51.550;12.138;2022-12-10T11:23:09;99854.47;;;7.29;60.99
12182;BME280;6154;51.550;12.138;2022-12-10T11:26:05;99850.22;;;7.26;60.73
12182;BME280;6154;51.550;12.138;2022-12-10T11:29:08;99857.34;;;7.24;60.99
12182;BME280;6154;51.550;12.138;2022-12-10T11:32:12;99859.50;;;7.33;60.89
12182;BME280;6154;51.550;12.138;2022-12-10T11:35:11;99861.44;;;7.30;60.90
12182;BME280;6154;51.550;12.138;2022-12-10T11:38:05;99860.12;;;7.38;60.96
12182;BME280;6154;51.550;12.138;2022-12-10T11:41:02;99852.69;;;7.46;61.15
12182;BME280;6154;51.550;12.138;2022-12-10T11:44:12;99854.09;;;7.36;61.03
12182;BME280;6154;51.550;12.138;2022-12-10T11:47:22;99860.84;;;7.42;60.63
12182;BME280;6154;51.550;12.138;2022-12-10T11:50:23;99865.22;;;7.41;60.34
12182;BME280;6154;51.550;12.138;2022-12-10T11:53:33;99858.56;;;7.52;60.89
12182;BME280;6154;51.550;12.138;2022-12-10T11:56:26;99859.00;;;7.60;60.57
12182;BME280;6154;51.550;12.138;2022-12-10T11:59:21;99860.88;;;7.58;60.89
12182;BME280;6154;51.550;12.138;2022-12-10T12:02:49;99855.78;;;7.55;60.75
12182;BME280;6154;51.550;12.138;2022-12-10T12:06:03;99861.22;;;7.52;60.56
12182;BME280;6154;51.550;12.138;2022-12-10T12:08:58;99856.84;;;7.50;60.71
12182;BME280;6154;51.550;12.138;2022-12-10T12:11:55;99851.09;;;7.60;60.95
12182;BME280;6154;51.550;12.138;2022-12-10T12:14:47;99859.47;;;7.50;60.32
12182;BME280;6154;51.550;12.138;2022-12-10T12:17:39;99856.37;;;7.60;60.76
12182;BME280;6154;51.550;12.138;2022-12-10T12:20:30;99866.78;;;7.63;60.57
12182;BME280;6154;51.550;12.138;2022-12-10T12:23:24;99868.78;;;7.58;60.29
12182;BME280;6154;51.550;12.138;2022-12-10T12:26:16;99866.28;;;7.72;60.83
12182;BME280;6154;51.550;12.138;2022-12-10T12:29:12;99864.28;;;7.60;60.61
12182;BME280;6154;51.550;12.138;2022-12-10T12:32:04;99857.66;;;7.53;60.46
12182;BME280;6154;51.550;12.138;2022-12-10T12:35:00;99867.31;;;7.52;60.57
12182;BME280;6154;51.550;12.138;2022-12-10T12:37:54;99859.94;;;7.59;60.83
12182;BME280;6154;51.550;12.138;2022-12-10T12:40:45;99858.38;;;7.72;60.83
12182;BME280;6154;51.550;12.138;2022-12-10T12:43:42;99860.41;;;7.67;60.57
12182;BME280;6154;51.550;12.138;2022-12-10T12:46:37;99857.50;;;7.71;60.13
12182;BME280;6154;51.550;12.138;2022-12-10T12:49:28;99857.13;;;7.79;60.04
12182;BME280;6154;51.550;12.138;2022-12-10T12:52:26;99868.16;;;8.03;60.59
12182;BME280;6154;51.550;12.138;2022-12-10T12:55:22;99862.63;;;8.07;60.05
12182;BME280;6154;51.550;12.138;2022-12-10T12:58:20;99869.09;;;8.18;60.17
12182;BME280;6154;51.550;12.138;2022-12-10T13:01:20;99866.53;;;8.16;59.49
12182;BME280;6154;51.550;12.138;2022-12-10T13:04:12;99864.91;;;7.98;58.99
12182;BME280;6154;51.550;12.138;2022-12-10T13:07:11;99878.81;;;7.84;60.03
12182;BME280;6154;51.550;12.138;2022-12-10T13:10:24;99878.75;;;7.68;59.64
12182;BME280;6154;51.550;12.138;2022-12-10T13:13:31;99878.34;;;7.76;60.28
12182;BME280;6154;51.550;12.138;2022-12-10T13:16:34;99878.06;;;7.65;59.99
12182;BME280;6154;51.550;12.138;2022-12-10T13:19:25;99878.84;;;7.67;60.03
12182;BME280;6154;51.550;12.138;2022-12-10T13:22:40;99885.72;;;7.69;60.56
12182;BME280;6154;51.550;12.138;2022-12-10T13:25:55;99883.34;;;7.65;60.08
12182;BME280;6154;51.550;12.138;2022-12-10T13:28:49;99889.53;;;7.64;60.02
12182;BME280;6154;51.550;12.138;2022-12-10T13:31:37;99884.09;;;7.49;60.45
12182;BME280;6154;51.550;12.138;2022-12-10T13:34:33;99890.69;;;7.41;60.62
12182;BME280;6154;51.550;12.138;2022-12-10T13:37:30;99892.16;;;7.29;60.87
12182;BME280;6154;51.550;12.138;2022-12-10T13:40:26;99893.56;;;7.19;60.95
12182;BME280;6154;51.550;12.138;2022-12-10T13:43:38;99890.12;;;7.00;60.93
12182;BME280;6154;51.550;12.138;2022-12-10T13:46:56;99903.34;;;6.98;61.42
12182;BME280;6154;51.550;12.138;2022-12-10T13:49:49;99900.56;;;7.01;61.46
12182;BME280;6154;51.550;12.138;2022-12-10T13:52:51;99904.38;;;6.96;61.57
12182;BME280;6154;51.550;12.138;2022-12-10T13:55:46;99904.13;;;7.00;61.74
12182;BME280;6154;51.550;12.138;2022-12-10T13:58:44;99907.03;;;6.77;61.78
12182;BME280;6154;51.550;12.138;2022-12-10T14:01:42;99916.34;;;6.84;61.84
12182;BME280;6154;51.550;12.138;2022-12-10T14:05:10;99911.06;;;6.84;61.84
12182;BME280;6154;51.550;12.138;2022-12-10T14:08:03;99923.06;;;6.71;61.78
12182;BME280;6154;51.550;12.138;2022-12-10T14:11:15;99911.50;;;6.75;62.04
12182;BME280;6154;51.550;12.138;2022-12-10T14:14:11;99926.00;;;6.65;62.07
12182;BME280;6154;51.550;12.138;2022-12-10T14:17:05;99921.75;;;6.62;62.30
12182;BME280;6154;51.550;12.138;2022-12-10T14:19:54;99916.34;;;6.65;62.39
12182;BME280;6154;51.550;12.138;2022-12-10T14:22:45;99915.34;;;6.68;62.31
12182;BME280;6154;51.550;12.138;2022-12-10T14:25:41;99917.81;;;6.71;62.21
12182;BME280;6154;51.550;12.138;2022-12-10T14:28:29;99923.53;;;6.61;62.17
12182;BME280;6154;51.550;12.138;2022-12-10T14:31:25;99919.75;;;6.67;62.34
12182;BME280;6154;51.550;12.138;2022-12-10T14:34:16;99928.84;;;6.60;62.34
12182;BME280;6154;51.550;12.138;2022-12-10T14:37:03;99928.78;;;6.61;62.46
12182;BME280;6154;51.550;12.138;2022-12-10T14:39:52;99918.22;;;6.63;62.53
12182;BME280;6154;51.550;12.138;2022-12-10T14:42:39;99921.81;;;6.60;62.60
12182;BME280;6154;51.550;12.138;2022-12-10T14:45:35;99932.97;;;6.47;62.66
12182;BME280;6154;51.550;12.138;2022-12-10T14:48:27;99926.72;;;6.49;62.55
12182;BME280;6154;51.550;12.138;2022-12-10T14:51:16;99933.25;;;6.41;62.65
12182;BME280;6154;51.550;12.138;2022-12-10T14:54:29;99927.22;;;6.39;62.77
12182;BME280;6154;51.550;12.138;2022-12-10T14:57:21;99930.56;;;6.42;62.85
12182;BME280;6154;51.550;12.138;2022-12-10T15:00:14;99933.19;;;6.42;62.80
12182;BME280;6154;51.550;12.138;2022-12-10T15:03:10;99927.13;;;6.40;63.01
12182;BME280;6154;51.550;12.138;2022-12-10T15:06:01;99936.09;;;6.36;63.20
12182;BME280;6154;51.550;12.138;2022-12-10T15:08:53;99940.50;;;6.36;63.27
12182;BME280;6154;51.550;12.138;2022-12-10T15:11:41;99936.94;;;6.37;63.36
12182;BME280;6154;51.550;12.138;2022-12-10T15:14:29;99946.38;;;6.41;63.34
12182;BME280;6154;51.550;12.138;2022-12-10T15:17:34;99942.72;;;6.45;63.26
12182;BME280;6154;51.550;12.138;2022-12-10T15:20:24;99936.09;;;6.36;63.36